Time;durP1;ratioP1;P1;durP2;ratioP2;P2;SDS_P1;SDS_P2;PMS_P1;PMS_P2;Temp;Humidity;BMP_temperature;BMP_pressure;BME280_temperature;BME280_humidity;BME280_pressure;Samples;Min_cycle;Max_cycle;Signal;HPM_P1;HPM_P2
2023/09/28 00:00:58;;;;;;;13.07;10.35;;;15.90;99.90;;;;;;5075956;28;20036;-70
2023/09/28 00:03:24;;;;;;;11.63;9.10;;;15.90;99.90;;;;;;5076632;28;20115;-70
2023/09/28 00:05:50;;;;;;;10.20;8.23;;;15.90;99.90;;;;;;5076415;28;20056;-70
2023/09/28 00:08:16;;;;;;;10.20;8.95;;;15.80;99.90;;;;;;5076017;28;20518;-70
2023/09/28 00:10:42;;;;;;;11.05;8.40;;;15.80;99.90;;;;;;5075621;28;20097;-71
2023/09/28 00:13:08;;;;;;;9.45;8.55;;;15.80;99.90;;;;;;5076144;28;20043;-70
2023/09/28 00:15:34;;;;;;;11.77;8.48;;;15.70;99.90;;;;;;5076295;28;20033;-70
2023/09/28 00:18:00;;;;;;;11.10;8.38;;;15.70;99.90;;;;;;5075669;28;20040;-70
2023/09/28 00:20:27;;;;;;;11.35;9.45;;;15.70;99.90;;;;;;5076007;28;20028;-70
2023/09/28 00:22:54;;;;;;;10.65;9.60;;;15.70;99.90;;;;;;5076421;28;20025;-70
2023/09/28 00:25:22;;;;;;;13.25;9.88;;;15.70;99.90;;;;;;5075935;28;20066;-70
2023/09/28 00:27:50;;;;;;;8.73;7.85;;;15.70;99.90;;;;;;5076028;28;20529;-70
2023/09/28 00:30:19;;;;;;;9.82;8.25;;;15.80;99.90;;;;;;5076130;28;20020;-71
2023/09/28 00:32:47;;;;;;;11.32;8.52;;;15.80;99.90;;;;;;5075316;28;20114;-70
2023/09/28 00:35:13;;;;;;;9.55;8.55;;;15.90;99.90;;;;;;5076151;28;20031;-71
2023/09/28 00:37:39;;;;;;;13.57;9.23;;;15.90;99.90;;;;;;5075861;28;20456;-71
2023/09/28 00:40:17;;;;;;;9.60;8.23;;;15.90;99.90;;;;;;5075805;28;20024;-71
2023/09/28 00:42:45;;;;;;;8.60;7.43;;;15.90;99.90;;;;;;5075581;28;20020;-70
2023/09/28 00:45:11;;;;;;;9.50;8.52;;;15.90;99.90;;;;;;5075726;28;20043;-70
2023/09/28 00:47:40;;;;;;;9.43;8.48;;;15.90;99.90;;;;;;5075368;28;20025;-70
2023/09/28 00:50:15;;;;;;;11.32;8.07;;;15.80;99.90;;;;;;5075441;28;20024;-70
2023/09/28 00:52:42;;;;;;;9.05;8.15;;;15.80;99.90;;;;;;5074557;28;20125;-70
2023/09/28 00:55:09;;;;;;;8.35;7.55;;;15.80;99.90;;;;;;5075357;28;20032;-71
2023/09/28 00:57:38;;;;;;;8.70;7.80;;;15.70;99.90;;;;;;5075955;28;20060;-70
2023/09/28 01:00:18;;;;;;;8.07;7.25;;;15.70;99.90;;;;;;5075665;28;20402;-70
2023/09/28 01:02:50;;;;;;;8.68;7.50;;;15.70;99.90;;;;;;5075319;28;20367;-71
2023/09/28 01:05:18;;;;;;;8.10;7.30;;;15.70;99.90;;;;;;5074567;28;20028;-70
2023/09/28 01:07:43;;;;;;;10.00;8.95;;;15.60;99.90;;;;;;5075406;28;20067;-70
2023/09/28 01:10:12;;;;;;;9.40;8.30;;;15.70;99.90;;;;;;5075196;28;20064;-71
2023/09/28 01:12:39;;;;;;;7.22;6.53;;;15.70;99.90;;;;;;5075082;28;20107;-71
2023/09/28 01:15:09;;;;;;;9.10;8.00;;;15.70;99.90;;;;;;5074772;28;20025;-70
2023/09/28 01:17:36;;;;;;;8.02;7.22;;;15.70;99.90;;;;;;5075035;28;20029;-70
2023/09/28 01:20:17;;;;;;;8.98;8.07;;;15.70;99.90;;;;;;5074681;28;20073;-70
2023/09/28 01:22:45;;;;;;;8.88;7.97;;;15.70;99.90;;;;;;5074550;28;20413;-70
2023/09/28 01:25:11;;;;;;;9.05;8.15;;;15.70;99.90;;;;;;5074426;28;20052;-70
2023/09/28 01:27:37;;;;;;;11.40;9.18;;;15.70;99.90;;;;;;5074811;28;20047;-70
2023/09/28 01:30:04;;;;;;;10.75;7.95;;;15.70;99.90;;;;;;5074768;28;20374;-70
2023/09/28 01:32:29;;;;;;;10.98;9.02;;;15.70;99.90;;;;;;5074560;28;20036;-70
2023/09/28 01:34:55;;;;;;;10.05;8.98;;;15.70;99.90;;;;;;5074586;28;20028;-70
2023/09/28 01:37:29;;;;;;;9.93;7.88;;;15.70;99.90;;;;;;5074556;28;20067;-70
2023/09/28 01:39:55;;;;;;;9.88;8.35;;;15.70;99.90;;;;;;5074582;28;20101;-70
2023/09/28 01:42:21;;;;;;;9.55;7.32;;;15.70;99.90;;;;;;5074486;28;20167;-70
2023/09/28 01:44:46;;;;;;;10.05;8.20;;;15.70;99.90;;;;;;5074859;28;20090;-70
2023/09/28 01:47:12;;;;;;;9.95;8.27;;;15.70;99.90;;;;;;5074196;28;20036;-70
2023/09/28 01:49:37;;;;;;;8.93;7.32;;;15.70;99.90;;;;;;5074811;28;20107;-70
2023/09/28 01:52:03;;;;;;;11.52;7.95;;;15.70;99.90;;;;;;5074395;28;20028;-70
2023/09/28 01:54:28;;;;;;;9.05;8.15;;;15.70;99.90;;;;;;5074117;28;20038;-70
2023/09/28 01:56:54;;;;;;;10.73;8.25;;;15.70;99.90;;;;;;5074555;28;20025;-70
2023/09/28 01:59:19;;;;;;;9.43;8.43;;;15.70;99.90;;;;;;5074572;28;20024;-70
2023/09/28 02:01:45;;;;;;;11.73;8.15;;;15.70;99.90;;;;;;5074509;28;20029;-70
2023/09/28 02:04:11;;;;;;;9.52;7.90;;;15.80;99.90;;;;;;5074027;28;20047;-70
2023/09/28 02:06:36;;;;;;;9.15;8.25;;;15.80;99.90;;;;;;5073803;28;20386;-70
2023/09/28 02:09:04;;;;;;;11.73;9.18;;;15.80;99.90;;;;;;5074419;28;20059;-70
2023/09/28 02:11:29;;;;;;;8.23;7.43;;;15.80;99.90;;;;;;5074135;28;20352;-70
2023/09/28 02:13:55;;;;;;;10.10;8.50;;;15.80;99.90;;;;;;5074132;28;20085;-70
2023/09/28 02:16:20;;;;;;;10.85;9.75;;;15.80;99.90;;;;;;5073495;28;20029;-71
2023/09/28 02:18:46;;;;;;;9.23;7.65;;;15.80;99.90;;;;;;5073661;28;20466;-71
2023/09/28 02:21:14;;;;;;;8.65;7.57;;;15.80;99.90;;;;;;5074240;28;20039;-70
2023/09/28 02:23:40;;;;;;;11.00;8.77;;;15.80;99.90;;;;;;5074254;28;20362;-70
2023/09/28 02:26:06;;;;;;;10.85;8.63;;;15.80;99.90;;;;;;5073925;28;20378;-70
2023/09/28 02:28:32;;;;;;;12.40;8.98;;;15.80;99.90;;;;;;5074258;28;20035;-70
2023/09/28 02:31:06;;;;;;;11.27;8.52;;;15.80;99.90;;;;;;5073924;28;20043;-70
2023/09/28 02:33:32;;;;;;;9.85;8.50;;;15.70;99.90;;;;;;5073241;28;20068;-70
2023/09/28 02:35:58;;;;;;;9.68;8.18;;;15.70;99.90;;;;;;5073837;28;20025;-70
2023/09/28 02:38:24;;;;;;;8.98;7.22;;;15.70;99.90;;;;;;5073484;28;20429;-70
2023/09/28 02:40:49;;;;;;;8.43;7.55;;;15.70;99.90;;;;;;5073785;28;20063;-70
2023/09/28 02:43:15;;;;;;;11.13;8.95;;;15.70;99.90;;;;;;5074043;28;20036;-70
2023/09/28 02:45:40;;;;;;;8.80;7.90;;;15.70;99.90;;;;;;5073482;28;20064;-70
2023/09/28 02:48:06;;;;;;;8.55;7.75;;;15.70;99.90;;;;;;5073624;28;20466;-70
2023/09/28 02:50:31;;;;;;;11.77;8.75;;;15.60;99.90;;;;;;5073342;28;20484;-70
2023/09/28 02:52:57;;;;;;;9.88;7.45;;;15.60;99.90;;;;;;5073246;28;20020;-70
2023/09/28 02:55:22;;;;;;;10.10;8.35;;;15.60;99.90;;;;;;5073286;28;20028;-70
2023/09/28 02:57:48;;;;;;;8.32;7.60;;;15.60;99.90;;;;;;5073541;28;20016;-70
2023/09/28 03:02:51;;;;;;;9.23;8.27;;;15.50;99.90;;;;;;5072888;28;20389;-70
2023/09/28 03:05:20;;;;;;;9.98;8.43;;;15.50;99.90;;;;;;5072870;28;20021;-70
2023/09/28 03:07:46;;;;;;;8.52;7.50;;;15.50;99.90;;;;;;5073543;28;20029;-70
2023/09/28 03:10:13;;;;;;;9.32;8.43;;;15.50;99.90;;;;;;5073482;28;20027;-71
2023/09/28 03:12:39;;;;;;;9.73;8.73;;;15.50;99.90;;;;;;5073499;28;20028;-74
2023/09/28 03:15:10;;;;;;;8.32;7.47;;;15.40;99.90;;;;;;5073051;28;20500;-70
2023/09/28 03:17:37;;;;;;;9.18;7.93;;;15.40;99.90;;;;;;5077282;28;20043;-70
2023/09/28 03:20:10;;;;;;;10.48;8.10;;;15.40;99.90;;;;;;5076281;28;20020;-70
2023/09/28 03:22:35;;;;;;;9.07;7.68;;;15.30;99.90;;;;;;5077240;28;20132;-70
2023/09/28 03:25:01;;;;;;;11.02;9.00;;;15.30;99.90;;;;;;5077479;28;20499;-70
2023/09/28 03:27:27;;;;;;;10.95;9.85;;;15.20;99.90;;;;;;5077174;28;20043;-70
2023/09/28 03:29:52;;;;;;;11.45;9.85;;;15.20;99.90;;;;;;5076793;28;20024;-70
2023/09/28 03:32:17;;;;;;;10.30;8.95;;;15.10;99.90;;;;;;5077104;28;20028;-70
2023/09/28 03:34:43;;;;;;;10.82;9.07;;;15.10;99.90;;;;;;5076497;28;20029;-70
2023/09/28 03:37:09;;;;;;;9.55;8.45;;;15.00;99.90;;;;;;5076889;28;20028;-70
2023/09/28 03:39:35;;;;;;;9.45;8.15;;;15.10;99.90;;;;;;5077230;28;20070;-70
2023/09/28 03:42:01;;;;;;;10.52;8.95;;;15.00;99.90;;;;;;5076904;28;20036;-70
2023/09/28 03:44:26;;;;;;;9.55;8.60;;;14.90;99.90;;;;;;5076835;28;20386;-70
2023/09/28 03:46:52;;;;;;;10.55;8.70;;;14.90;99.90;;;;;;5076653;28;20024;-70
2023/09/28 03:49:17;;;;;;;13.13;9.45;;;14.90;99.90;;;;;;5077006;28;20051;-70
2023/09/28 03:51:43;;;;;;;9.40;8.38;;;14.80;99.90;;;;;;5076616;28;20078;-70
2023/09/28 03:54:09;;;;;;;11.25;9.10;;;14.80;99.90;;;;;;5075892;28;20024;-70
2023/09/28 03:56:34;;;;;;;9.43;8.50;;;14.80;99.90;;;;;;5076321;28;20043;-70
2023/09/28 03:59:00;;;;;;;8.95;8.05;;;14.80;99.90;;;;;;5075894;28;20104;-70
2023/09/28 04:01:26;;;;;;;9.55;8.55;;;14.70;99.90;;;;;;5076497;28;20352;-70
2023/09/28 04:03:53;;;;;;;9.75;8.75;;;14.70;99.90;;;;;;5076450;28;20024;-70
2023/09/28 04:06:18;;;;;;;10.18;8.43;;;14.70;99.90;;;;;;5076075;28;20141;-70
2023/09/28 04:08:44;;;;;;;9.38;8.00;;;14.60;99.90;;;;;;5076085;28;20457;-70
2023/09/28 04:11:09;;;;;;;9.50;8.60;;;14.60;99.90;;;;;;5076436;28;20025;-70
2023/09/28 04:13:35;;;;;;;9.27;8.40;;;14.60;99.90;;;;;;5075274;28;20020;-70
2023/09/28 04:16:00;;;;;;;11.57;8.57;;;14.60;99.90;;;;;;5076018;28;20032;-70
2023/09/28 04:18:27;;;;;;;8.82;7.55;;;14.50;99.90;;;;;;5075388;28;20028;-70
2023/09/28 04:20:52;;;;;;;9.63;8.07;;;14.50;99.90;;;;;;5076102;28;20382;-70
2023/09/28 04:23:18;;;;;;;13.32;9.40;;;14.50;99.90;;;;;;5076200;28;20029;-70
2023/09/28 04:25:43;;;;;;;11.75;9.38;;;14.50;99.90;;;;;;5076096;28;20028;-70
2023/09/28 04:28:09;;;;;;;11.70;9.13;;;14.50;99.90;;;;;;5075640;28;20033;-69
2023/09/28 04:30:36;;;;;;;15.73;9.60;;;14.40;99.90;;;;;;5076290;28;20470;-70
2023/09/28 04:33:02;;;;;;;10.73;8.57;;;14.40;99.90;;;;;;5075627;28;20055;-70
2023/09/28 04:35:27;;;;;;;9.60;8.00;;;14.40;99.90;;;;;;5075707;28;20025;-70
2023/09/28 04:37:53;;;;;;;9.13;8.15;;;14.30;99.90;;;;;;5076163;28;20390;-70
2023/09/28 04:40:24;;;;;;;9.05;8.15;;;14.30;99.90;;;;;;5075207;28;20055;-70
2023/09/28 04:42:49;;;;;;;8.95;7.75;;;14.30;99.90;;;;;;5075492;28;20027;-70
2023/09/28 04:45:15;;;;;;;9.82;8.77;;;14.30;99.90;;;;;;5075923;28;20488;-71
2023/09/28 04:47:42;;;;;;;10.38;8.60;;;14.30;99.90;;;;;;5075596;28;20108;-70
2023/09/28 04:50:08;;;;;;;11.23;9.60;;;14.20;99.90;;;;;;5075863;28;20032;-70
2023/09/28 04:52:34;;;;;;;9.70;8.48;;;14.20;99.90;;;;;;5075611;28;20429;-70
2023/09/28 04:55:01;;;;;;;11.93;9.10;;;14.20;99.90;;;;;;5075503;28;20027;-70
2023/09/28 04:57:27;;;;;;;12.80;9.82;;;14.20;99.90;;;;;;5075051;28;20032;-71
2023/09/28 04:59:53;;;;;;;10.55;9.45;;;14.20;99.90;;;;;;5075634;28;20028;-70
2023/09/28 05:02:19;;;;;;;11.40;9.63;;;14.20;99.90;;;;;;5075575;28;20119;-70
2023/09/28 05:04:44;;;;;;;10.52;9.43;;;14.20;99.90;;;;;;5075565;28;20119;-69
2023/09/28 05:07:10;;;;;;;12.98;9.43;;;14.20;99.90;;;;;;5074986;28;20119;-70
2023/09/28 05:09:36;;;;;;;10.88;9.48;;;14.20;99.90;;;;;;5074724;28;20412;-70
2023/09/28 05:12:01;;;;;;;10.35;8.85;;;14.30;99.90;;;;;;5075012;28;20036;-70
2023/09/28 05:14:27;;;;;;;11.30;9.18;;;14.30;99.90;;;;;;5075169;28;20037;-69
2023/09/28 05:16:54;;;;;;;11.30;9.07;;;14.40;99.90;;;;;;5074621;28;20070;-69
2023/09/28 05:19:21;;;;;;;9.48;8.57;;;14.40;99.90;;;;;;5075015;28;20026;-70
2023/09/28 05:21:47;;;;;;;10.65;8.98;;;14.40;99.90;;;;;;5075188;28;20481;-70
2023/09/28 05:24:13;;;;;;;10.07;9.02;;;14.40;99.90;;;;;;5074940;28;20024;-70
2023/09/28 05:26:39;;;;;;;10.85;8.00;;;14.50;99.90;;;;;;5075180;28;20039;-70
2023/09/28 05:29:04;;;;;;;13.38;9.38;;;14.50;99.90;;;;;;5074657;28;20028;-70
2023/09/28 05:31:30;;;;;;;11.73;9.70;;;14.40;99.90;;;;;;5074807;28;20374;-70
2023/09/28 05:33:56;;;;;;;11.63;8.63;;;14.40;99.90;;;;;;5073571;28;20049;-70
2023/09/28 05:36:22;;;;;;;12.45;8.80;;;14.40;99.90;;;;;;5074621;28;20032;-69
2023/09/28 05:38:47;;;;;;;12.45;9.23;;;14.40;99.90;;;;;;5073538;28;20024;-70
2023/09/28 05:41:13;;;;;;;10.45;8.07;;;14.40;99.90;;;;;;5074920;28;20129;-69
2023/09/28 05:43:38;;;;;;;12.35;8.77;;;14.40;99.90;;;;;;5074609;28;20466;-69
2023/09/28 05:46:04;;;;;;;10.18;8.18;;;14.50;99.90;;;;;;5074416;28;20032;-70
2023/09/28 05:48:30;;;;;;;10.18;8.20;;;14.50;99.90;;;;;;5073443;28;20028;-69
2023/09/28 05:50:56;;;;;;;12.02;8.35;;;14.50;99.90;;;;;;5074388;28;20044;-69
2023/09/28 05:53:21;;;;;;;10.68;7.78;;;14.50;99.90;;;;;;5074539;28;20036;-69
2023/09/28 05:55:50;;;;;;;13.38;8.40;;;14.60;99.90;;;;;;5074564;28;20029;-70
2023/09/28 05:58:15;;;;;;;9.60;7.68;;;14.70;99.90;;;;;;5074386;28;20029;-70
2023/09/28 06:00:41;;;;;;;10.52;7.80;;;14.70;99.90;;;;;;5074427;28;20162;-71
2023/09/28 06:03:07;;;;;;;12.52;7.88;;;14.80;99.90;;;;;;5074534;28;20082;-69
2023/09/28 06:05:32;;;;;;;9.80;7.80;;;14.90;99.90;;;;;;5074435;28;20024;-69
2023/09/28 06:07:59;;;;;;;11.00;7.90;;;15.00;99.90;;;;;;5074168;28;20028;-70
2023/09/28 06:10:26;;;;;;;9.07;6.75;;;15.10;99.90;;;;;;5068568;28;20035;-70
2023/09/28 06:12:52;;;;;;;9.02;7.65;;;15.20;99.90;;;;;;5079268;28;20036;-70
2023/09/28 06:15:17;;;;;;;8.43;7.38;;;15.30;99.90;;;;;;5072702;28;20103;-75
2023/09/28 06:17:43;;;;;;;8.82;7.00;;;15.40;99.90;;;;;;5073022;28;20038;-70
2023/09/28 06:20:09;;;;;;;10.95;7.10;;;15.50;99.90;;;;;;5073169;28;20025;-70
2023/09/28 06:22:35;;;;;;;8.65;7.00;;;15.90;99.90;;;;;;5073144;28;20112;-70
2023/09/28 06:25:02;;;;;;;8.68;6.13;;;16.90;99.90;;;;;;5073214;28;20466;-70
2023/09/28 06:27:28;;;;;;;10.68;6.10;;;17.80;99.90;;;;;;5073200;28;20024;-70
2023/09/28 06:29:54;;;;;;;7.80;5.72;;;18.80;99.90;;;;;;5068838;28;20021;-71
2023/09/28 06:32:21;;;;;;;10.60;6.05;;;19.80;99.90;;;;;;5072384;28;20036;-70
2023/09/28 06:34:47;;;;;;;11.45;5.50;;;20.70;93.10;;;;;;5071584;28;20097;-71
2023/09/28 06:37:13;;;;;;;13.05;6.18;;;21.20;9.70;;;;;;5072976;28;20115;-70
2023/09/28 06:39:38;;;;;;;8.57;6.00;;;22.10;1.00;;;;;;5072120;28;20024;-71
2023/09/28 06:42:05;;;;;;;9.35;6.32;;;22.60;99.90;;;;;;5072986;28;20033;-71
2023/09/28 06:44:30;;;;;;;9.18;6.72;;;22.80;99.90;;;;;;5072968;28;20065;-71
2023/09/28 06:46:57;;;;;;;12.15;5.80;;;23.30;21.30;;;;;;5073462;28;20056;-71
2023/09/28 06:49:23;;;;;;;10.02;6.20;;;23.50;57.20;;;;;;5074347;28;20024;-71
2023/09/28 06:51:49;;;;;;;8.38;5.05;;;23.50;99.90;;;;;;5073982;28;20025;-71
2023/09/28 06:54:15;;;;;;;10.73;4.82;;;23.70;99.90;;;;;;5071592;28;20025;-71
2023/09/28 06:56:41;;;;;;;7.15;5.00;;;24.00;99.90;;;;;;5066272;28;20025;-71
2023/09/28 06:59:07;;;;;;;6.15;5.10;;;24.40;99.90;;;;;;5071264;28;20027;-71
2023/09/28 07:01:33;;;;;;;11.27;5.53;;;24.70;99.90;;;;;;5071304;28;20028;-71
2023/09/28 07:03:59;;;;;;;7.43;5.25;;;24.90;94.40;;;;;;5083210;28;20432;-71
2023/09/28 07:06:25;;;;;;;10.55;5.10;;;24.60;1.00;;;;;;5098010;28;20032;-71
2023/09/28 07:08:52;;;;;;;8.50;5.18;;;24.30;1.00;;;;;;5077281;28;20037;-71
2023/09/28 07:11:19;;;;;;;8.43;5.20;;;23.70;46.70;;;;;;5077403;28;20035;-71
2023/09/28 07:13:45;;;;;;;10.20;5.55;;;23.40;36.40;;;;;;5076676;28;20033;-72
2023/09/28 07:16:11;;;;;;;9.95;5.60;;;23.40;1.00;;;;;;5066061;28;20112;-71
2023/09/28 07:18:37;;;;;;;7.22;5.18;;;23.10;1.00;;;;;;5079322;28;20118;-71
2023/09/28 07:21:03;;;;;;;8.50;4.65;;;23.10;99.90;;;;;;5070553;28;20037;-71
2023/09/28 07:23:28;;;;;;;11.05;5.28;;;23.40;1.00;;;;;;5069739;28;20115;-71
2023/09/28 07:25:55;;;;;;;9.40;5.25;;;23.50;99.90;;;;;;5070097;28;20174;-70
2023/09/28 07:28:21;;;;;;;9.75;5.72;;;23.70;91.70;;;;;;5062887;28;20035;-71
2023/09/28 07:30:47;;;;;;;9.35;4.90;;;23.90;99.90;;;;;;5078173;28;20482;-71
2023/09/28 07:33:15;;;;;;;8.85;4.72;;;24.30;1.00;;;;;;5076149;28;20048;-71
2023/09/28 07:35:43;;;;;;;6.72;4.70;;;24.20;1.00;;;;;;5076221;28;20020;-71
2023/09/28 07:38:08;;;;;;;10.02;5.30;;;24.00;99.90;;;;;;5072050;28;20024;-70
2023/09/28 07:40:34;;;;;;;8.95;4.28;;;24.30;1.00;;;;;;5077618;28;20516;-71
2023/09/28 07:43:00;;;;;;;8.18;4.90;;;24.60;1.00;;;;;;5076209;28;20032;-71
2023/09/28 07:45:25;;;;;;;8.15;4.65;;;24.10;90.40;;;;;;5073162;28;20505;-71
2023/09/28 07:47:51;;;;;;;9.43;4.80;;;24.00;81.50;;;;;;5076634;28;20044;-70
2023/09/28 07:50:17;;;;;;;12.43;5.30;;;24.10;99.90;;;;;;5075463;28;20051;-70
2023/09/28 07:52:43;;;;;;;8.45;5.20;;;24.60;32.20;;;;;;5076642;28;20027;-70
2023/09/28 07:55:10;;;;;;;8.57;5.40;;;24.30;99.90;;;;;;5068625;28;20064;-71
2023/09/28 07:57:36;;;;;;;10.07;5.40;;;24.30;1.00;;;;;;5076683;28;20394;-71
2023/09/28 08:00:04;;;;;;;8.13;5.13;;;23.50;20.00;;;;;;5076849;28;20115;-71
2023/09/28 08:02:30;;;;;;;9.48;5.13;;;23.60;1.00;;;;;;5075409;28;20416;-71
2023/09/28 08:04:55;;;;;;;14.88;4.97;;;24.00;99.90;;;;;;5079501;28;20115;-71
2023/09/28 08:07:22;;;;;;;16.42;5.53;;;23.80;1.00;;;;;;5078630;28;20486;-71
2023/09/28 08:09:48;;;;;;;10.55;5.15;;;23.80;99.90;;;;;;5076026;28;20024;-70
2023/09/28 08:12:13;;;;;;;12.77;6.10;;;23.80;1.00;;;;;;5075093;28;20032;-71
2023/09/28 08:14:39;;;;;;;10.65;5.60;;;23.60;99.90;;;;;;5076370;28;20021;-70
2023/09/28 08:17:06;;;;;;;13.95;5.60;;;23.60;99.90;;;;;;5075420;28;20039;-70
2023/09/28 08:19:32;;;;;;;17.45;6.20;;;23.70;1.00;;;;;;5076486;28;20029;-71
2023/09/28 08:21:57;;;;;;;10.35;5.55;;;24.10;99.90;;;;;;5074086;28;20512;-71
2023/09/28 08:24:23;;;;;;;8.07;5.65;;;24.10;99.90;;;;;;5078754;28;20493;-71
2023/09/28 08:26:48;;;;;;;14.32;6.25;;;24.00;99.90;;;;;;5074113;28;20123;-71
2023/09/28 08:29:15;;;;;;;10.52;5.63;;;24.10;99.90;;;;;;5069320;28;20032;-71
2023/09/28 08:31:40;;;;;;;9.15;5.75;;;23.90;99.90;;;;;;5075177;28;20500;-71
2023/09/28 08:34:08;;;;;;;11.52;5.80;;;23.90;1.00;;;;;;5073667;28;20164;-71
2023/09/28 08:36:34;;;;;;;11.13;5.43;;;24.40;93.50;;;;;;5069260;28;20024;-71
2023/09/28 08:38:59;;;;;;;13.82;5.63;;;24.80;99.90;;;;;;5072927;28;20029;-71
2023/09/28 08:41:46;;;;;;;11.65;5.97;;;24.30;29.00;;;;;;5076774;28;20093;-71
2023/09/28 08:44:12;;;;;;;13.38;7.03;;;24.10;99.90;;;;;;5071471;28;20047;-71
2023/09/28 08:46:39;;;;;;;14.82;5.75;;;24.30;1.00;;;;;;5069903;28;20122;-71
2023/09/28 08:49:07;;;;;;;12.75;5.95;;;24.00;99.90;;;;;;5073413;28;20038;-71
2023/09/28 08:51:36;;;;;;;15.10;6.45;;;23.90;99.90;;;;;;5073251;28;20028;-70
2023/09/28 08:54:04;;;;;;;14.00;6.25;;;23.40;1.00;;;;;;5074241;28;20033;-70
2023/09/28 08:56:33;;;;;;;10.70;5.97;;;23.80;99.90;;;;;;5074661;28;20028;-71
2023/09/28 08:58:59;;;;;;;7.72;5.45;;;23.70;99.90;;;;;;5066009;28;20497;-71
2023/09/28 09:01:28;;;;;;;10.13;5.38;;;24.10;99.90;;;;;;5055456;28;20467;-70
2023/09/28 09:03:55;;;;;;;10.88;4.95;;;24.00;1.00;;;;;;5075890;28;20035;-71
2023/09/28 09:06:22;;;;;;;10.85;5.95;;;23.90;99.90;;;;;;5074860;28;20111;-71
2023/09/28 09:08:49;;;;;;;10.50;5.15;;;23.80;1.00;;;;;;5072399;28;20074;-70
2023/09/28 09:11:17;;;;;;;12.10;4.53;;;24.10;1.00;;;;;;5069265;28;20033;-70
2023/09/28 09:13:58;;;;;;;8.65;4.93;;;24.10;99.90;;;;;;5053441;28;20033;-70
2023/09/28 09:16:25;;;;;;;12.00;4.72;;;25.20;99.90;;;;;;5061499;28;20059;-71
2023/09/28 09:18:52;;;;;;;11.45;4.50;;;24.50;99.90;;;;;;5073644;28;20137;-70
2023/09/28 09:21:19;;;;;;;9.65;4.28;;;24.30;99.90;;;;;;5062524;28;20025;-70
2023/09/28 09:24:01;;;;;;;13.57;5.13;;;24.10;99.90;;;;;;5054154;28;20035;-70
2023/09/28 09:26:27;;;;;;;8.98;4.38;;;23.90;1.00;;;;;;5054834;28;20111;-71
2023/09/28 09:28:58;;;;;;;9.95;4.13;;;23.60;99.90;;;;;;5070611;28;20108;-70
2023/09/28 09:31:24;;;;;;;10.35;4.57;;;23.80;1.00;;;;;;5071805;28;20028;-70
2023/09/28 09:33:50;;;;;;;8.43;4.10;;;24.20;99.90;;;;;;5067933;28;20484;-69
2023/09/28 09:36:18;;;;;;;12.38;4.25;;;24.30;99.90;;;;;;5057725;28;20083;-70
2023/09/28 09:38:44;;;;;;;10.02;4.32;;;24.00;99.90;;;;;;5057371;28;20056;-69
2023/09/28 09:41:10;;;;;;;11.63;4.47;;;24.30;99.90;;;;;;5056537;28;20029;-70
2023/09/28 09:43:40;;;;;;;7.20;3.90;;;24.30;1.00;;;;;;5053820;28;20372;-70
2023/09/28 09:46:07;;;;;;;9.43;4.38;;;24.50;99.90;;;;;;5058455;28;20390;-70
2023/09/28 09:48:43;;;;;;;13.02;4.60;;;25.50;92.00;;;;;;5079028;28;20032;-70
2023/09/28 09:51:12;;;;;;;10.27;4.22;;;25.90;99.90;;;;;;5076998;28;20089;-70
2023/09/28 09:53:40;;;;;;;9.82;4.38;;;25.80;96.90;;;;;;5058786;28;20382;-71
2023/09/28 09:56:07;;;;;;;7.30;4.25;;;25.10;99.90;;;;;;5069785;28;20489;-70
2023/09/28 09:58:39;;;;;;;8.50;4.57;;;25.60;99.90;;;;;;5069953;28;20041;-71
2023/09/28 10:01:12;;;;;;;10.85;4.88;;;25.80;99.90;;;;;;5064229;28;20100;-71
2023/09/28 10:03:44;;;;;;;12.75;4.57;;;25.60;1.00;;;;;;5055734;28;20513;-71
2023/09/28 10:06:11;;;;;;;12.38;5.07;;;25.20;13.40;;;;;;5065935;28;20076;-71
2023/09/28 10:08:38;;;;;;;11.70;4.88;;;24.40;99.90;;;;;;5065159;28;20114;-71
2023/09/28 10:11:04;;;;;;;14.40;5.45;;;24.00;99.90;;;;;;5071811;28;20032;-70
2023/09/28 10:13:31;;;;;;;16.95;5.13;;;23.40;1.00;;;;;;5065189;28;20040;-71
2023/09/28 10:16:00;;;;;;;11.75;5.07;;;23.10;99.90;;;;;;5067291;28;20021;-70
2023/09/28 10:18:29;;;;;;;11.95;5.57;;;23.10;99.90;;;;;;5066845;28;20024;-70
2023/09/28 10:20:55;;;;;;;11.23;5.63;;;22.70;1.00;;;;;;5070495;28;20382;-71
2023/09/28 10:23:24;;;;;;;11.65;5.25;;;22.70;28.40;;;;;;5066801;28;20023;-71
2023/09/28 10:26:06;;;;;;;14.35;5.40;;;22.50;99.90;;;;;;5063350;28;20130;-71
2023/09/28 10:28:33;;;;;;;10.57;5.53;;;22.40;99.90;;;;;;5067133;28;20040;-71
2023/09/28 10:31:09;;;;;;;15.80;5.80;;;22.50;99.90;;;;;;5073190;28;20048;-71
2023/09/28 10:33:35;;;;;;;13.57;5.28;;;22.50;99.90;;;;;;5069435;28;20510;-71
2023/09/28 10:36:13;;;;;;;13.32;4.53;;;22.50;99.90;;;;;;5067911;28;20048;-71
2023/09/28 10:38:41;;;;;;;10.57;4.65;;;22.30;99.90;;;;;;5065187;28;20060;-71
2023/09/28 10:41:06;;;;;;;12.25;5.18;;;22.60;30.40;;;;;;5070694;28;20429;-71
2023/09/28 10:43:37;;;;;;;10.20;4.60;;;23.00;1.00;;;;;;5064567;28;20036;-71
2023/09/28 10:46:03;;;;;;;13.63;4.60;;;23.20;1.00;;;;;;5068358;28;20541;-70
2023/09/28 10:48:46;;;;;;;8.48;4.50;;;22.90;1.00;;;;;;5064747;28;20056;-70
2023/09/28 10:51:13;;;;;;;11.10;4.60;;;22.70;1.00;;;;;;5066323;28;20051;-71
2023/09/28 10:53:39;;;;;;;12.23;4.70;;;22.50;67.20;;;;;;5068667;28;20033;-71
2023/09/28 10:56:06;;;;;;;13.00;4.75;;;22.40;99.90;;;;;;5067175;28;20438;-70
2023/09/28 10:58:34;;;;;;;10.90;4.80;;;22.60;99.90;;;;;;5066554;28;20028;-70
2023/09/28 11:01:04;;;;;;;15.70;4.75;;;22.60;99.90;;;;;;5063752;28;20040;-71
2023/09/28 11:03:31;;;;;;;13.07;5.10;;;22.90;1.00;;;;;;5066666;28;20028;-70
2023/09/28 11:05:58;;;;;;;9.60;4.45;;;23.10;99.90;;;;;;5066394;28;20037;-70
2023/09/28 11:08:25;;;;;;;9.23;4.70;;;23.50;99.90;;;;;;5071044;28;20024;-71
2023/09/28 11:10:51;;;;;;;14.10;4.80;;;23.70;95.40;;;;;;5068643;28;20033;-71
2023/09/28 11:13:16;;;;;;;10.07;4.53;;;24.10;70.00;;;;;;5068390;28;20444;-71
2023/09/28 11:15:42;;;;;;;9.82;5.10;;;24.10;99.90;;;;;;5064375;28;20115;-70
2023/09/28 11:18:07;;;;;;;5.82;4.85;;;23.70;99.90;;;;;;5071332;28;20069;-70
2023/09/28 11:20:33;;;;;;;7.45;4.28;;;23.80;99.90;;;;;;5069609;28;20132;-70
2023/09/28 11:22:59;;;;;;;12.75;4.82;;;23.50;24.30;;;;;;5069601;28;20039;-70
2023/09/28 11:25:26;;;;;;;9.93;4.80;;;23.40;2.70;;;;;;5067729;28;20025;-71
2023/09/28 11:27:52;;;;;;;8.70;4.22;;;23.80;1.00;;;;;;5070304;28;20132;-71
2023/09/28 11:30:19;;;;;;;9.63;4.55;;;24.10;1.00;;;;;;5069529;28;20043;-70
2023/09/28 11:32:48;;;;;;;6.43;4.18;;;24.10;99.90;;;;;;5064514;28;20061;-71
2023/09/28 11:35:15;;;;;;;8.32;4.35;;;24.30;1.00;;;;;;5064314;28;20123;-70
2023/09/28 11:37:41;;;;;;;6.28;4.50;;;23.90;1.00;;;;;;5069796;28;20020;-70
2023/09/28 11:40:10;;;;;;;11.43;5.13;;;23.80;99.90;;;;;;5072226;28;20508;-70
2023/09/28 11:42:40;;;;;;;12.32;5.40;;;23.60;99.90;;;;;;5073840;28;20024;-71
2023/09/28 11:45:06;;;;;;;9.80;5.35;;;23.50;99.90;;;;;;5067185;28;20555;-71
2023/09/28 11:47:32;;;;;;;11.90;5.55;;;23.30;99.90;;;;;;5071196;28;20036;-70
2023/09/28 11:50:03;;;;;;;11.32;5.78;;;23.30;99.90;;;;;;5070006;28;20037;-71
2023/09/28 11:52:28;;;;;;;9.02;5.70;;;23.20;99.90;;;;;;5073390;28;20178;-71
2023/09/28 11:54:54;;;;;;;9.45;5.85;;;23.10;99.90;;;;;;5068601;28;20537;-70
2023/09/28 11:57:19;;;;;;;9.20;6.05;;;23.40;99.90;;;;;;5074105;28;20020;-71
2023/09/28 11:59:45;;;;;;;11.55;6.25;;;23.50;1.00;;;;;;5071315;28;20028;-71
2023/09/28 12:02:11;;;;;;;10.50;6.45;;;23.80;1.00;;;;;;5069423;28;20031;-71
2023/09/28 12:04:37;;;;;;;9.65;5.88;;;24.10;1.00;;;;;;5070532;28;20028;-71
2023/09/28 12:07:03;;;;;;;8.68;5.60;;;24.10;1.00;;;;;;5069700;28;20036;-70
2023/09/28 12:09:30;;;;;;;12.48;5.68;;;23.90;1.00;;;;;;5073669;28;20032;-70
2023/09/28 12:11:56;;;;;;;10.70;6.38;;;23.80;99.90;;;;;;5074991;28;20032;-70
2023/09/28 12:14:22;;;;;;;9.10;6.30;;;23.60;99.90;;;;;;5065866;28;20039;-71
2023/09/28 12:16:47;;;;;;;8.85;6.65;;;23.40;1.00;;;;;;5089714;28;20027;-70
2023/09/28 12:19:13;;;;;;;9.07;7.03;;;23.20;99.90;;;;;;5077138;28;20482;-71
2023/09/28 12:21:40;;;;;;;9.30;6.82;;;23.10;99.90;;;;;;5062825;28;20032;-71
2023/09/28 12:24:06;;;;;;;11.88;6.53;;;23.20;99.90;;;;;;5061736;28;20033;-70
2023/09/28 12:26:32;;;;;;;10.82;6.80;;;23.60;99.90;;;;;;5058385;28;20183;-71
2023/09/28 12:28:58;;;;;;;12.90;8.43;;;23.70;79.50;;;;;;5058301;28;20119;-70
2023/09/28 12:31:24;;;;;;;9.55;7.45;;;23.60;99.90;;;;;;5062826;28;20056;-71
2023/09/28 12:33:49;;;;;;;13.95;8.05;;;23.60;99.90;;;;;;5055532;28;20087;-71
2023/09/28 12:36:16;;;;;;;10.70;7.80;;;23.40;1.00;;;;;;5071894;28;20032;-71
2023/09/28 12:38:41;;;;;;;13.18;7.63;;;23.40;99.90;;;;;;5073988;28;20020;-71
2023/09/28 12:41:09;;;;;;;9.27;7.68;;;23.50;99.90;;;;;;5069848;28;20117;-71
2023/09/28 12:43:35;;;;;;;12.50;8.95;;;23.90;1.00;;;;;;5055658;28;20086;-71